Aviation Digital Data Service (ADDS)

Output produced by METARs form (0758 UTC 23 October 2018)
found at http://aviationweather.gov/metar/data/
 
KHKS 230521Z 2306/2406 04004KT P6SM BKN250